Time;durP1;ratioP1;P1;durP2;ratioP2;P2;SDS_P1;SDS_P2;PMS_P1;PMS_P2;Temp;Humidity;BMP_temperature;BMP_pressure;BME280_temperature;BME280_humidity;BME280_pressure;Samples;Min_cycle;Max_cycle;Signal;HPM_P1;HPM_P2
2021/12/28 00:03:53;;;;;;;102.23;37.37;;;-4.30;99.90;;;;;;10228294;29;20033;-88
2021/12/28 00:08:54;;;;;;;104.83;38.73;;;-4.30;99.90;;;;;;10245569;29;20118;-86
2021/12/28 00:14:00;;;;;;;121.27;43.83;;;-4.30;99.90;;;;;;10247424;29;20054;-86
2021/12/28 00:19:02;;;;;;;120.00;42.13;;;-4.30;99.90;;;;;;10243928;29;20122;-90
2021/12/28 00:24:04;;;;;;;126.03;47.80;;;-4.20;99.90;;;;;;10226956;29;20020;-85
2021/12/28 00:29:05;;;;;;;127.00;46.80;;;-4.20;99.90;;;;;;10247339;29;20110;-85
2021/12/28 00:34:05;;;;;;;139.87;48.37;;;-4.20;99.90;;;;;;10229267;29;20095;-89
2021/12/28 00:39:06;;;;;;;123.80;46.23;;;-4.10;99.90;;;;;;10245705;29;20023;-87
2021/12/28 00:44:07;;;;;;;137.70;50.77;;;-4.10;99.90;;;;;;10230343;28;20134;-86
2021/12/28 00:49:08;;;;;;;139.77;51.67;;;-4.00;99.90;;;;;;10261014;28;20478;-88
2021/12/28 00:54:09;;;;;;;124.13;47.90;;;-4.00;99.90;;;;;;10258887;28;20058;-86
2021/12/28 00:59:09;;;;;;;144.10;52.87;;;-4.00;99.90;;;;;;10286144;28;20023;-85
2021/12/28 01:04:10;;;;;;;110.47;43.87;;;-4.00;99.90;;;;;;10266504;28;20027;-86
2021/12/28 01:09:11;;;;;;;122.83;47.43;;;-4.00;99.90;;;;;;10282667;28;20053;-86
2021/12/28 01:14:12;;;;;;;127.80;49.60;;;-3.90;99.90;;;;;;10261501;28;20097;-85
2021/12/28 01:19:12;;;;;;;139.70;51.07;;;-3.90;99.90;;;;;;10254006;28;20471;-85
2021/12/28 01:24:13;;;;;;;137.43;51.67;;;-3.90;99.90;;;;;;10285561;28;20038;-87
2021/12/28 01:29:14;;;;;;;259.30;101.70;;;-3.90;99.90;;;;;;10267033;28;20035;-85
2021/12/28 01:34:16;;;;;;;260.70;78.07;;;-3.90;99.90;;;;;;10275991;28;20039;-88
2021/12/28 01:39:16;;;;;;;145.53;47.77;;;-3.90;99.90;;;;;;10283227;28;20035;-88
2021/12/28 01:44:17;;;;;;;121.73;44.23;;;-4.00;99.90;;;;;;10269751;28;20082;-90
2021/12/28 01:49:18;;;;;;;121.90;43.10;;;-4.10;99.90;;;;;;10273540;28;20031;-87
2021/12/28 01:54:19;;;;;;;120.83;43.10;;;-4.20;99.90;;;;;;10262875;28;20487;-86
2021/12/28 01:59:22;;;;;;;127.87;46.00;;;-4.20;99.90;;;;;;10252670;29;20079;-85
2021/12/28 02:04:25;;;;;;;136.27;50.07;;;-4.30;99.90;;;;;;10255752;28;21121;-85
2021/12/28 02:09:26;;;;;;;127.07;48.67;;;-4.40;99.90;;;;;;10285104;28;20557;-88
2021/12/28 02:14:27;;;;;;;161.73;63.70;;;-4.40;99.90;;;;;;10273365;28;20182;-85
2021/12/28 02:19:28;;;;;;;182.60;68.23;;;-4.50;99.90;;;;;;10272433;28;20030;-84
2021/12/28 02:24:28;;;;;;;137.57;52.57;;;-4.50;99.90;;;;;;10263123;28;20038;-86
2021/12/28 02:29:29;;;;;;;145.03;54.43;;;-4.60;99.90;;;;;;10291305;28;20091;-85
2021/12/28 02:34:30;;;;;;;138.90;47.83;;;-4.80;99.90;;;;;;10290236;28;20039;-91
2021/12/28 02:39:30;;;;;;;128.77;46.03;;;-4.80;99.90;;;;;;10272884;28;20248;-84
2021/12/28 02:44:31;;;;;;;135.37;49.57;;;-4.90;99.90;;;;;;10272404;28;20820;-86
2021/12/28 02:49:32;;;;;;;133.77;45.00;;;-4.80;99.90;;;;;;10273118;28;20375;-86
2021/12/28 02:54:33;;;;;;;134.33;48.03;;;-4.70;99.90;;;;;;10271492;28;20046;-86
2021/12/28 02:59:34;;;;;;;143.83;46.37;;;-4.70;99.90;;;;;;10289741;28;20035;-86
2021/12/28 03:04:34;;;;;;;136.60;49.27;;;-4.60;99.90;;;;;;10270431;28;20054;-88
2021/12/28 03:09:36;;;;;;;157.10;59.90;;;-4.60;99.90;;;;;;10270063;28;20641;-88
2021/12/28 03:14:37;;;;;;;139.60;53.13;;;-4.60;99.90;;;;;;10271929;28;20605;-85
2021/12/28 03:19:37;;;;;;;141.47;54.37;;;-4.60;99.90;;;;;;10256613;28;20030;-86
2021/12/28 03:24:38;;;;;;;132.67;48.93;;;-4.60;99.90;;;;;;10280889;28;20039;-85
2021/12/28 03:29:39;;;;;;;142.23;50.03;;;-4.50;99.90;;;;;;10287715;28;20031;-86
2021/12/28 03:34:39;;;;;;;144.07;52.57;;;-4.40;99.90;;;;;;10286071;28;20049;-85
2021/12/28 03:39:40;;;;;;;143.00;49.40;;;-4.40;99.90;;;;;;10270259;28;20431;-88
2021/12/28 03:44:41;;;;;;;127.67;47.57;;;-4.20;99.90;;;;;;10268044;28;20054;-86
2021/12/28 03:49:42;;;;;;;126.40;47.77;;;-4.20;99.90;;;;;;10269551;28;20023;-86
2021/12/28 03:54:43;;;;;;;128.00;48.30;;;-4.30;99.90;;;;;;10261782;28;20042;-86
2021/12/28 03:59:44;;;;;;;140.77;50.73;;;-4.30;99.90;;;;;;10288954;28;20181;-86
2021/12/28 04:04:44;;;;;;;145.60;59.90;;;-4.30;99.90;;;;;;10258530;28;20031;-88
2021/12/28 04:10:09;;;;;;;124.27;46.83;;;-4.40;99.90;;;;;;10255262;28;20031;-86
2021/12/28 04:15:13;;;;;;;127.43;47.87;;;-4.50;99.90;;;;;;10270434;28;20046;-84
2021/12/28 04:20:18;;;;;;;137.17;47.20;;;-4.60;99.90;;;;;;10287335;28;20023;-86
2021/12/28 04:25:19;;;;;;;376.85;115.50;;;-4.60;99.90;;;;;;10285211;28;20031;-86
2021/12/28 04:30:20;;;;;;;363.17;112.30;;;-4.70;99.90;;;;;;10268883;28;20031;-88
2021/12/28 04:35:21;;;;;;;241.20;76.67;;;-4.80;99.90;;;;;;10265604;28;20845;-87
2021/12/28 04:40:22;;;;;;;219.50;72.17;;;-4.90;99.90;;;;;;10233709;28;20065;-84
2021/12/28 04:45:23;;;;;;;219.17;69.53;;;-4.90;99.90;;;;;;10271857;28;20138;-85
2021/12/28 04:50:24;;;;;;;357.17;114.87;;;-5.00;99.90;;;;;;10262509;28;20170;-89
2021/12/28 04:55:25;;;;;;;684.33;234.67;;;-4.90;99.90;;;;;;10254790;28;20542;-87
2021/12/28 05:00:26;;;;;;;460.47;154.30;;;-4.90;99.90;;;;;;10268202;28;20020;-89
2021/12/28 05:05:27;;;;;;;386.23;121.17;;;-4.80;99.90;;;;;;10263592;28;20039;-89
2021/12/28 05:10:27;;;;;;;290.97;96.20;;;-4.70;99.90;;;;;;10267823;28;20442;-85
2021/12/28 05:15:28;;;;;;;331.70;100.17;;;-4.60;99.90;;;;;;10265495;28;20038;-87
2021/12/28 05:20:29;;;;;;;378.43;110.80;;;-4.50;99.90;;;;;;10278107;28;20109;-84
2021/12/28 05:25:31;;;;;;;433.67;131.63;;;-4.50;99.90;;;;;;10268631;28;20034;-84
2021/12/28 05:30:33;;;;;;;350.77;110.33;;;-4.50;99.90;;;;;;10270506;28;20459;-88
2021/12/28 05:35:34;;;;;;;206.30;70.70;;;-4.40;99.90;;;;;;10262410;28;20126;-88
2021/12/28 05:40:35;;;;;;;252.60;86.27;;;-4.30;99.90;;;;;;10274600;28;20114;-92
2021/12/28 05:45:36;;;;;;;273.07;91.37;;;-4.30;99.90;;;;;;10275984;28;20065;-90
2021/12/28 05:50:37;;;;;;;285.73;100.33;;;-4.30;99.90;;;;;;10270121;28;20033;-88
2021/12/28 05:55:38;;;;;;;286.20;123.10;;;-4.30;99.90;;;;;;10276797;28;20668;-87
2021/12/28 06:00:38;;;;;;;282.30;114.40;;;-4.30;99.90;;;;;;10293603;28;20054;-87
2021/12/28 06:05:40;;;;;;;335.10;134.33;;;-4.30;99.90;;;;;;10276438;28;20033;-87
2021/12/28 06:10:41;;;;;;;269.33;93.23;;;-4.30;99.90;;;;;;10293644;28;20034;-92
2021/12/28 06:15:41;;;;;;;192.67;76.40;;;-4.40;99.90;;;;;;10275558;28;20495;-88
2021/12/28 06:20:42;;;;;;;574.23;212.90;;;-4.40;99.90;;;;;;10292926;28;20062;-87
2021/12/28 06:25:43;;;;;;;364.33;124.47;;;-4.50;99.90;;;;;;10275529;28;20051;-87
2021/12/28 06:30:44;;;;;;;247.80;89.37;;;-4.60;99.90;;;;;;10275771;28;20049;-87
2021/12/28 06:35:45;;;;;;;305.83;105.93;;;-4.70;99.90;;;;;;10275878;28;20053;-87
2021/12/28 06:40:46;;;;;;;243.67;80.87;;;-4.80;99.90;;;;;;10274657;28;20030;-87
2021/12/28 06:45:46;;;;;;;217.47;77.43;;;-4.90;99.90;;;;;;10279420;28;20058;-86
2021/12/28 06:50:49;;;;;;;277.33;98.30;;;-5.00;99.90;;;;;;10285763;28;20035;-86
2021/12/28 06:55:49;;;;;;;279.00;99.63;;;-5.00;99.90;;;;;;10259508;28;20086;-87
2021/12/28 07:00:50;;;;;;;220.07;83.97;;;-5.10;99.90;;;;;;10273146;28;20129;-87
2021/12/28 07:05:51;;;;;;;247.80;98.53;;;-5.10;99.90;;;;;;10289590;28;20027;-87
2021/12/28 07:10:52;;;;;;;267.37;88.40;;;-5.10;99.90;;;;;;10272353;28;20035;-87
2021/12/28 07:15:52;;;;;;;216.57;78.03;;;-5.00;99.90;;;;;;10289153;28;20039;-90
2021/12/28 07:20:55;;;;;;;165.10;63.37;;;-4.90;99.90;;;;;;10266737;28;20027;-88
2021/12/28 07:25:56;;;;;;;289.00;87.83;;;-4.80;99.90;;;;;;10282815;28;20058;-86
2021/12/28 07:30:56;;;;;;;114.03;44.00;;;-4.80;99.90;;;;;;10269685;28;20545;-87
2021/12/28 07:35:57;;;;;;;226.93;68.13;;;-4.70;99.90;;;;;;10267044;28;20089;-86
2021/12/28 07:40:58;;;;;;;277.40;84.77;;;-4.60;99.90;;;;;;10271104;28;20085;-88
2021/12/28 07:45:59;;;;;;;248.80;89.23;;;-4.50;99.90;;;;;;10269669;28;20160;-87
2021/12/28 07:51:00;;;;;;;212.13;82.70;;;-4.40;99.90;;;;;;10264209;28;20029;-88
2021/12/28 07:56:12;;;;;;;229.90;91.70;;;-4.30;99.90;;;;;;10269467;28;20038;-89
2021/12/28 08:01:13;;;;;;;281.03;93.03;;;-4.30;99.90;;;;;;10270673;28;20512;-87
2021/12/28 08:06:14;;;;;;;266.20;100.77;;;-4.20;99.90;;;;;;10270322;28;20026;-89
2021/12/28 08:11:14;;;;;;;225.20;83.27;;;-4.10;99.90;;;;;;10287026;28;20027;-87
2021/12/28 08:16:15;;;;;;;168.77;60.80;;;-4.10;99.90;;;;;;10286053;28;20371;-87
2021/12/28 08:21:16;;;;;;;175.53;66.47;;;-4.10;99.90;;;;;;10268450;28;20073;-85
2021/12/28 08:26:23;;;;;;;210.20;84.80;;;-4.00;99.90;;;;;;10286500;28;20026;-86
2021/12/28 08:31:24;;;;;;;268.77;132.97;;;-3.80;99.90;;;;;;10268463;28;20033;-85
2021/12/28 08:36:24;;;;;;;224.50;107.90;;;-3.70;99.90;;;;;;10287764;28;20035;-87
2021/12/28 08:41:25;;;;;;;185.73;84.73;;;-3.60;99.90;;;;;;10270266;28;20019;-84
2021/12/28 08:46:26;;;;;;;126.13;50.93;;;-3.60;99.90;;;;;;10270880;28;20047;-90
2021/12/28 08:51:27;;;;;;;132.57;53.50;;;-3.50;99.90;;;;;;10270617;28;20023;-90
2021/12/28 08:56:27;;;;;;;168.63;74.30;;;-3.30;99.90;;;;;;10270522;28;20034;-86
2021/12/28 09:01:28;;;;;;;122.17;51.63;;;-3.20;99.90;;;;;;10287954;28;20483;-85
2021/12/28 09:06:29;;;;;;;129.27;51.57;;;-3.20;99.90;;;;;;10269408;28;20070;-85
2021/12/28 09:11:29;;;;;;;124.77;50.13;;;-3.10;99.90;;;;;;10289093;28;20162;-86
2021/12/28 09:16:30;;;;;;;98.67;39.40;;;-3.00;99.90;;;;;;10287425;28;20067;-89
2021/12/28 09:21:31;;;;;;;91.00;37.47;;;-2.90;99.90;;;;;;10269541;28;20027;-86
2021/12/28 09:26:34;;;;;;;133.00;52.67;;;-2.70;99.90;;;;;;10271417;28;20356;-86
2021/12/28 09:31:35;;;;;;;113.90;48.73;;;-2.60;99.90;;;;;;10277235;28;20023;-85
2021/12/28 09:36:36;;;;;;;116.97;49.03;;;-2.40;99.90;;;;;;10294172;28;20038;-85
2021/12/28 09:41:37;;;;;;;134.97;58.27;;;-2.10;99.90;;;;;;10277183;28;20038;-85
2021/12/28 09:46:39;;;;;;;129.37;55.93;;;-2.00;99.90;;;;;;10276612;28;20054;-85
2021/12/28 09:51:40;;;;;;;106.23;45.27;;;-1.90;99.90;;;;;;10277938;28;20023;-85
2021/12/28 09:56:41;;;;;;;110.53;45.77;;;-1.80;99.90;;;;;;10293891;28;20042;-85
2021/12/28 10:01:41;;;;;;;105.77;44.00;;;-1.70;99.90;;;;;;10293801;28;20074;-88
2021/12/28 10:06:43;;;;;;;111.70;49.70;;;-1.70;99.90;;;;;;10295491;28;20035;-88
2021/12/28 10:11:49;;;;;;;97.20;40.50;;;-1.70;99.90;;;;;;10275026;28;20035;-85
2021/12/28 10:16:54;;;;;;;108.07;45.13;;;-1.70;99.90;;;;;;10276294;28;20035;-85
2021/12/28 10:21:55;;;;;;;162.57;59.10;;;-1.60;99.90;;;;;;10294236;28;20427;-91
2021/12/28 10:27:12;;;;;;;136.83;53.97;;;-1.40;99.90;;;;;;10276106;28;20031;-85
2021/12/28 10:32:16;;;;;;;105.00;44.80;;;-1.20;99.90;;;;;;10275832;28;20027;-89
2021/12/28 10:37:20;;;;;;;185.00;70.43;;;-1.00;99.90;;;;;;10275721;28;20514;-86
2021/12/28 10:42:42;;;;;;;117.03;50.40;;;-1.00;99.90;;;;;;10275428;28;20051;-90
2021/12/28 10:47:43;;;;;;;125.70;48.23;;;-1.00;99.90;;;;;;10275527;28;20035;-86
2021/12/28 10:52:49;;;;;;;247.80;112.40;;;-0.90;99.90;;;;;;10275025;28;20019;-90
2021/12/28 10:57:51;;;;;;;190.70;85.13;;;-0.90;99.90;;;;;;10276412;28;20034;-86
2021/12/28 11:03:13;;;;;;;169.37;62.10;;;-1.00;99.90;;;;;;10275456;28;20030;-85
2021/12/28 11:08:14;;;;;;;443.00;132.13;;;-1.00;99.90;;;;;;10275714;28;20027;-90
2021/12/28 11:13:19;;;;;;;168.27;62.93;;;-1.00;99.90;;;;;;10291011;28;20035;-87
2021/12/28 11:18:30;;;;;;;231.30;100.57;;;-0.90;99.90;;;;;;10290595;28;20501;-84
2021/12/28 11:23:33;;;;;;;151.07;57.60;;;-0.90;99.90;;;;;;10290544;28;20026;-85
2021/12/28 11:28:36;;;;;;;212.80;72.30;;;-0.80;99.90;;;;;;10274704;28;20023;-84
2021/12/28 11:33:59;;;;;;;181.97;69.43;;;-0.70;99.90;;;;;;10274482;28;20547;-86
2021/12/28 11:39:03;;;;;;;159.00;62.67;;;-0.60;99.90;;;;;;10290646;28;20031;-88
2021/12/28 11:44:04;;;;;;;181.33;71.00;;;-0.50;99.90;;;;;;10273310;28;20117;-86
2021/12/28 11:49:07;;;;;;;165.40;60.77;;;-0.60;99.90;;;;;;10290064;28;20580;-90
2021/12/28 11:54:10;;;;;;;171.40;62.37;;;-0.60;99.90;;;;;;10273609;28;20030;-87
2021/12/28 11:59:26;;;;;;;139.70;53.17;;;-0.70;99.90;;;;;;10272989;28;20031;-85
2021/12/28 12:04:32;;;;;;;166.87;67.30;;;-0.70;99.90;;;;;;10289313;28;20438;-85
2021/12/28 12:09:34;;;;;;;182.13;68.23;;;-0.60;99.90;;;;;;10288947;28;20051;-84
2021/12/28 12:14:50;;;;;;;143.17;54.47;;;-0.50;99.90;;;;;;10288791;28;20499;-84
2021/12/28 12:19:51;;;;;;;165.23;59.75;;;-0.50;99.90;;;;;;10288796;28;20066;-87
2021/12/28 12:24:52;;;;;;;249.83;89.77;;;-0.60;99.90;;;;;;10287964;28;20062;-89
2021/12/28 12:29:55;;;;;;;125.83;51.60;;;-0.50;99.90;;;;;;10288154;28;20035;-85
2021/12/28 12:35:34;;;;;;;185.10;63.93;;;-0.60;99.90;;;;;;10270634;28;20043;-84
2021/12/28 12:41:01;;;;;;;122.30;50.63;;;-0.60;99.90;;;;;;10288917;28;20030;-87
2021/12/28 12:46:01;;;;;;;;;;;-0.80;99.90;;;;;;10270518;28;20086;-86
2021/12/28 12:51:21;;;;;;;123.97;50.83;;;-0.90;99.90;;;;;;10270883;28;20318;-85
2021/12/28 12:56:34;;;;;;;159.57;66.00;;;-0.90;99.90;;;;;;10270572;28;20046;-88
2021/12/28 13:01:37;;;;;;;143.20;57.97;;;-1.00;99.90;;;;;;10271962;28;20023;-88
2021/12/28 13:06:41;;;;;;;140.30;54.70;;;-1.10;99.90;;;;;;10295939;28;20031;-85
2021/12/28 13:11:43;;;;;;;130.40;51.57;;;-1.20;99.90;;;;;;10296209;28;20475;-89
2021/12/28 13:16:56;;;;;;;196.03;83.30;;;-1.30;99.90;;;;;;10277079;28;20062;-85
2021/12/28 13:22:08;;;;;;;167.13;68.20;;;-1.30;99.90;;;;;;10295755;28;20110;-89
2021/12/28 13:27:11;;;;;;;138.03;56.30;;;-1.30;99.90;;;;;;10278120;28;20150;-85
2021/12/28 13:32:23;;;;;;;142.67;59.37;;;-1.40;99.90;;;;;;10295075;28;20041;-86
2021/12/28 13:37:51;;;;;;;200.10;85.73;;;-1.40;99.90;;;;;;10295270;28;20027;-85
2021/12/28 13:42:58;;;;;;;132.87;57.13;;;-1.50;99.90;;;;;;10273295;28;20521;-84
2021/12/28 13:48:02;;;;;;;131.43;56.47;;;-1.50;99.90;;;;;;10291529;28;20038;-85
2021/12/28 13:53:03;;;;;;;112.63;46.63;;;-1.50;99.90;;;;;;10294439;28;20019;-84
2021/12/28 13:58:05;;;;;;;101.87;46.43;;;-1.50;99.90;;;;;;10292581;28;20538;-85
2021/12/28 14:03:07;;;;;;;121.80;55.03;;;-1.50;99.90;;;;;;10294494;28;21046;-84
2021/12/28 14:08:14;;;;;;;145.10;61.57;;;-1.50;99.90;;;;;;10297227;28;20042;-85
2021/12/28 14:13:19;;;;;;;365.40;131.70;;;-1.60;99.90;;;;;;10271090;28;20039;-83
2021/12/28 14:18:47;;;;;;;175.00;75.47;;;-1.60;99.90;;;;;;10281234;28;20027;-86
2021/12/28 14:23:55;;;;;;;128.97;54.60;;;-1.60;99.90;;;;;;10281463;28;20038;-84
2021/12/28 14:29:00;;;;;;;142.87;60.50;;;-1.70;99.90;;;;;;10274238;28;20030;-92
2021/12/28 14:34:01;;;;;;;112.50;46.67;;;-1.70;99.90;;;;;;10274398;28;20042;-87
2021/12/28 14:39:17;;;;;;;111.50;46.27;;;-1.80;99.90;;;;;;10289909;28;20041;-85
2021/12/28 14:44:29;;;;;;;118.67;47.07;;;-1.90;99.90;;;;;;10238270;28;20075;-85
2021/12/28 14:49:32;;;;;;;380.73;143.40;;;-2.00;99.90;;;;;;10270939;28;20034;-86
2021/12/28 14:54:33;;;;;;;191.33;79.33;;;-2.10;99.90;;;;;;10290625;28;20034;-84
2021/12/28 14:59:36;;;;;;;174.20;74.07;;;-2.20;99.90;;;;;;10273455;28;20562;-84
2021/12/28 15:04:37;;;;;;;124.57;52.00;;;-2.30;99.90;;;;;;10291322;28;20042;-85
2021/12/28 15:09:38;;;;;;;125.90;51.00;;;-2.50;99.90;;;;;;10284613;28;20037;-85
2021/12/28 15:14:39;;;;;;;95.63;42.50;;;-2.50;99.90;;;;;;10289715;28;20051;-86
2021/12/28 15:19:40;;;;;;;92.33;41.10;;;-2.60;99.90;;;;;;10286287;28;20038;-88
2021/12/28 15:24:41;;;;;;;110.27;49.30;;;-2.70;99.90;;;;;;10271941;28;20089;-84
2021/12/28 15:29:44;;;;;;;103.40;45.60;;;-2.80;99.90;;;;;;10260102;28;20434;-84
2021/12/28 15:34:44;;;;;;;115.50;49.97;;;-2.80;99.90;;;;;;10289085;28;20501;-85
2021/12/28 15:39:46;;;;;;;456.23;176.73;;;-2.90;99.90;;;;;;10269543;28;20069;-85
2021/12/28 15:44:47;;;;;;;1020.30;405.10;;;-3.00;99.90;;;;;;10287278;28;20051;-82
2021/12/28 15:49:47;;;;;;;602.07;231.17;;;-3.10;99.90;;;;;;10266041;28;20410;-86
2021/12/28 15:54:48;;;;;;;450.67;173.27;;;-3.30;99.90;;;;;;10270580;28;20105;-87
2021/12/28 15:59:50;;;;;;;294.60;113.47;;;-3.40;99.90;;;;;;10280037;28;20083;-83
2021/12/28 16:04:52;;;;;;;205.47;75.77;;;-3.50;99.90;;;;;;10283558;28;20121;-83
2021/12/28 16:09:53;;;;;;;134.20;50.77;;;-3.60;99.90;;;;;;10286786;28;20038;-83
2021/12/28 16:14:53;;;;;;;229.27;91.07;;;-3.70;99.90;;;;;;10287553;28;20699;-84
2021/12/28 16:19:54;;;;;;;356.23;144.87;;;-3.70;99.90;;;;;;10268230;28;20031;-84
2021/12/28 16:24:54;;;;;;;190.87;78.47;;;-3.80;99.90;;;;;;10269695;28;20039;-87
2021/12/28 16:29:55;;;;;;;172.87;66.03;;;-3.70;99.90;;;;;;10258247;28;20466;-82
2021/12/28 16:34:56;;;;;;;162.13;62.73;;;-3.50;99.90;;;;;;10281457;28;20031;-83
2021/12/28 16:39:56;;;;;;;157.70;66.70;;;-3.40;99.90;;;;;;10262750;28;20031;-84
2021/12/28 16:44:57;;;;;;;289.93;118.13;;;-3.40;99.90;;;;;;10284878;28;20053;-84
2021/12/28 16:49:58;;;;;;;211.73;87.70;;;-3.30;99.90;;;;;;10284692;28;20544;-82
2021/12/28 16:55:01;;;;;;;167.37;69.83;;;-3.30;99.90;;;;;;10260247;28;20043;-83
2021/12/28 17:00:04;;;;;;;161.97;69.37;;;-3.30;99.90;;;;;;10285701;28;20038;-83
2021/12/28 17:05:06;;;;;;;184.77;76.97;;;-3.30;99.90;;;;;;10287187;28;20031;-87
2021/12/28 17:10:08;;;;;;;197.53;83.50;;;-3.40;99.90;;;;;;10268706;28;20042;-85
2021/12/28 17:15:11;;;;;;;191.67;79.93;;;-3.50;99.90;;;;;;10282472;28;20046;-88
2021/12/28 17:20:12;;;;;;;172.60;73.17;;;-3.60;99.90;;;;;;10274937;28;20031;-91
2021/12/28 17:25:13;;;;;;;200.30;82.27;;;-3.60;99.90;;;;;;10260398;28;20042;-89
2021/12/28 17:30:15;;;;;;;189.80;74.90;;;-3.70;99.90;;;;;;10246141;28;20035;-86
2021/12/28 17:35:18;;;;;;;157.13;66.23;;;-3.60;99.90;;;;;;10251900;28;20117;-87
2021/12/28 17:40:20;;;;;;;150.63;61.37;;;-3.70;99.90;;;;;;10272805;28;20042;-85
2021/12/28 17:45:22;;;;;;;121.90;50.27;;;-3.70;99.90;;;;;;10276285;28;20050;-84
2021/12/28 17:50:24;;;;;;;126.93;53.87;;;-3.70;99.90;;;;;;10277645;28;20027;-84
2021/12/28 17:55:26;;;;;;;179.90;73.47;;;-3.80;99.90;;;;;;10272573;28;20038;-86
2021/12/28 18:00:29;;;;;;;155.33;68.43;;;-3.80;99.90;;;;;;10270902;28;20023;-83
2021/12/28 18:05:31;;;;;;;166.27;70.27;;;-3.80;99.90;;;;;;10248756;28;20030;-84
2021/12/28 18:10:33;;;;;;;141.97;58.27;;;-4.00;99.90;;;;;;10273447;28;20553;-87
2021/12/28 18:15:34;;;;;;;121.10;50.80;;;-4.10;99.90;;;;;;10255856;28;20039;-84
2021/12/28 18:20:36;;;;;;;141.10;54.37;;;-4.10;99.90;;;;;;10278060;28;20153;-86
2021/12/28 18:25:38;;;;;;;132.37;50.37;;;-4.20;99.90;;;;;;10259400;28;20047;-84
2021/12/28 18:30:41;;;;;;;121.20;48.97;;;-4.10;99.90;;;;;;10276428;28;20027;-86
2021/12/28 18:35:45;;;;;;;112.43;44.53;;;-4.10;99.90;;;;;;10270993;28;20039;-85
2021/12/28 18:40:46;;;;;;;113.97;47.07;;;-4.30;99.90;;;;;;10269629;28;20066;-89
2021/12/28 18:45:48;;;;;;;118.17;51.07;;;-4.30;99.90;;;;;;10252538;28;20138;-85
2021/12/28 18:50:52;;;;;;;129.93;52.30;;;-4.30;99.90;;;;;;10267802;28;20475;-86
2021/12/28 18:55:59;;;;;;;121.37;50.07;;;-4.30;99.90;;;;;;10289317;28;20050;-86
2021/12/28 19:01:04;;;;;;;116.03;52.20;;;-4.20;99.90;;;;;;10255734;28;20077;-83
2021/12/28 19:06:05;;;;;;;142.30;56.97;;;-4.20;99.90;;;;;;10266447;28;20540;-87
2021/12/28 19:11:07;;;;;;;139.43;57.03;;;-4.30;99.90;;;;;;10261547;28;20024;-84
2021/12/28 19:16:07;;;;;;;152.60;63.30;;;-4.40;99.90;;;;;;10241079;28;20035;-82
2021/12/28 19:21:11;;;;;;;134.93;55.90;;;-4.40;99.90;;;;;;10279851;28;20034;-82
2021/12/28 19:26:12;;;;;;;119.07;48.83;;;-4.50;99.90;;;;;;10283279;28;20031;-82
2021/12/28 19:31:13;;;;;;;110.00;43.67;;;-4.60;99.90;;;;;;10283001;28;20049;-83
2021/12/28 19:36:18;;;;;;;112.60;48.77;;;-4.60;99.90;;;;;;10283988;28;20089;-82
2021/12/28 19:41:20;;;;;;;138.47;56.67;;;-4.60;99.90;;;;;;10276912;28;20113;-82
2021/12/28 19:46:21;;;;;;;135.10;55.70;;;-4.60;99.90;;;;;;10284751;28;20058;-84
2021/12/28 19:51:22;;;;;;;134.93;53.60;;;-4.60;99.90;;;;;;10279846;28;20501;-83
2021/12/28 19:56:23;;;;;;;143.23;59.43;;;-4.60;99.90;;;;;;10262297;28;20552;-82
2021/12/28 20:01:24;;;;;;;147.73;59.00;;;-4.60;99.90;;;;;;10266211;28;20045;-82
2021/12/28 20:06:25;;;;;;;148.87;62.53;;;-4.60;99.90;;;;;;10282695;28;20078;-82
2021/12/28 20:11:27;;;;;;;144.27;59.87;;;-4.50;99.90;;;;;;10287529;28;20085;-85
2021/12/28 20:16:28;;;;;;;155.33;63.13;;;-4.50;99.90;;;;;;10278949;28;20434;-82
2021/12/28 20:21:28;;;;;;;167.77;68.33;;;-4.50;99.90;;;;;;10274151;28;20129;-81
2021/12/28 20:26:29;;;;;;;176.50;71.53;;;-4.50;99.90;;;;;;10287807;28;20030;-82
2021/12/28 20:31:31;;;;;;;132.53;51.33;;;-4.50;99.90;;;;;;10249590;28;20089;-84
2021/12/28 20:36:32;;;;;;;116.13;49.80;;;-4.40;99.90;;;;;;10267664;28;20130;-87
2021/12/28 20:41:35;;;;;;;119.00;49.73;;;-4.30;99.90;;;;;;10283692;28;20554;-83
2021/12/28 20:46:38;;;;;;;124.03;52.90;;;-4.20;99.90;;;;;;10283838;28;20046;-85
2021/12/28 20:51:38;;;;;;;141.80;62.03;;;-4.10;99.90;;;;;;10280155;28;20031;-82
2021/12/28 20:56:39;;;;;;;137.33;58.37;;;-4.00;99.90;;;;;;10283120;28;20035;-82
2021/12/28 21:01:40;;;;;;;136.83;58.73;;;-4.00;99.90;;;;;;10260491;28;20081;-85
2021/12/28 21:06:41;;;;;;;136.90;58.63;;;-4.00;99.90;;;;;;10262551;28;20031;-86
2021/12/28 21:11:55;;;;;;;123.90;53.00;;;-3.90;99.90;;;;;;10279822;28;20053;-84
2021/12/28 21:16:58;;;;;;;123.33;52.40;;;-3.90;99.90;;;;;;10259109;28;20077;-84
2021/12/28 21:22:00;;;;;;;151.77;61.03;;;-3.80;99.90;;;;;;10283161;28;20066;-83
2021/12/28 21:27:01;;;;;;;166.73;68.57;;;-3.80;99.90;;;;;;10290960;28;20129;-85
2021/12/28 21:32:02;;;;;;;312.17;114.10;;;-3.80;99.90;;;;;;10287071;28;20033;-82
2021/12/28 21:37:06;;;;;;;385.20;152.53;;;-3.70;99.90;;;;;;10288277;28;20117;-83
2021/12/28 21:42:08;;;;;;;254.23;105.53;;;-3.70;99.90;;;;;;10274090;28;20034;-82
2021/12/28 21:47:12;;;;;;;283.17;108.03;;;-3.70;99.90;;;;;;10270199;28;20450;-82
2021/12/28 21:52:17;;;;;;;183.87;74.20;;;-3.80;99.90;;;;;;10289437;28;20030;-82
2021/12/28 21:57:18;;;;;;;205.55;84.63;;;-3.80;99.90;;;;;;10288381;28;20050;-86
2021/12/28 22:02:19;;;;;;;156.47;64.20;;;-3.90;99.90;;;;;;10288888;28;20078;-82
2021/12/28 22:07:20;;;;;;;146.67;62.57;;;-3.90;99.90;;;;;;10287018;28;20110;-82
2021/12/28 22:12:20;;;;;;;137.37;56.97;;;-3.90;99.90;;;;;;10286421;28;20037;-83
2021/12/28 22:17:21;;;;;;;145.67;60.63;;;-3.90;99.90;;;;;;10290005;28;20130;-82
2021/12/28 22:22:22;;;;;;;148.10;61.93;;;-3.90;99.90;;;;;;10270958;28;20065;-83
2021/12/28 22:27:24;;;;;;;139.43;61.63;;;-3.80;99.90;;;;;;10282275;28;20023;-82
2021/12/28 22:32:25;;;;;;;141.60;62.63;;;-3.80;99.90;;;;;;10273893;28;20026;-85
2021/12/28 22:37:25;;;;;;;138.10;57.73;;;-3.80;99.90;;;;;;10287680;28;20525;-85
2021/12/28 22:42:26;;;;;;;159.47;60.97;;;-3.80;99.90;;;;;;10290435;28;20054;-86
2021/12/28 22:47:27;;;;;;;141.53;57.60;;;-3.80;99.90;;;;;;10279268;28;20057;-82
2021/12/28 22:52:27;;;;;;;135.67;55.37;;;-3.80;99.90;;;;;;10285857;28;20035;-82
2021/12/28 22:57:28;;;;;;;139.60;59.63;;;-3.70;99.90;;;;;;10273229;28;20493;-83
2021/12/28 23:02:29;;;;;;;155.40;62.87;;;-3.70;99.90;;;;;;10286746;28;20030;-83
2021/12/28 23:07:30;;;;;;;156.87;64.97;;;-3.70;99.90;;;;;;10281636;28;20023;-84
2021/12/28 23:12:30;;;;;;;184.93;75.30;;;-3.70;99.90;;;;;;10286756;28;20054;-83
2021/12/28 23:17:33;;;;;;;190.57;78.60;;;-3.70;99.90;;;;;;10265596;28;20043;-85
2021/12/28 23:22:34;;;;;;;236.97;91.40;;;-3.70;99.90;;;;;;10245943;28;20037;-84
2021/12/28 23:27:37;;;;;;;324.33;129.90;;;-3.60;99.90;;;;;;10270311;28;20033;-84
2021/12/28 23:32:38;;;;;;;378.47;151.90;;;-3.50;99.90;;;;;;10270534;28;20077;-82
2021/12/28 23:37:39;;;;;;;360.57;142.77;;;-3.50;99.90;;;;;;10288064;28;20058;-83
2021/12/28 23:42:40;;;;;;;373.17;144.20;;;-3.40;99.90;;;;;;10286938;28;20054;-83
2021/12/28 23:47:40;;;;;;;366.73;147.20;;;-3.40;99.90;;;;;;10286278;28;20038;-82
2021/12/28 23:52:42;;;;;;;358.90;140.63;;;-3.30;99.90;;;;;;10288282;28;20639;-86
2021/12/28 23:57:44;;;;;;;266.40;103.77;;;-3.20;99.90;;;;;;10250939;28;20023;-82
